createdAt,value
2023-02-15T00:01:13.637Z,1.70
2023-02-15T00:03:41.030Z,1.60
2023-02-15T00:06:10.799Z,1.70
2023-02-15T00:08:37.947Z,1.70
2023-02-15T00:11:16.891Z,1.70
2023-02-15T00:13:46.311Z,1.70
2023-02-15T00:16:14.196Z,1.70
2023-02-15T00:18:45.775Z,1.70
2023-02-15T00:21:15.307Z,0.80
2023-02-15T00:23:42.320Z,1.60
2023-02-15T00:26:11.951Z,1.60
2023-02-15T00:28:39.769Z,1.60
2023-02-15T00:31:12.123Z,1.60
2023-02-15T00:33:40.451Z,1.60
2023-02-15T00:36:09.489Z,1.60
2023-02-15T00:38:41.314Z,1.60
2023-02-15T00:41:09.745Z,1.50
2023-02-15T00:43:37.858Z,1.50
2023-02-15T00:46:06.326Z,1.50
2023-02-15T00:48:33.707Z,1.50
2023-02-15T00:51:01.734Z,1.50
2023-02-15T00:53:30.084Z,1.50
2023-02-15T00:56:00.826Z,1.50
2023-02-15T00:58:28.109Z,1.50
2023-02-15T01:00:55.488Z,1.40
2023-02-15T01:03:25.158Z,1.40
2023-02-15T01:05:52.516Z,1.40
2023-02-15T01:08:19.569Z,1.40
2023-02-15T01:10:46.917Z,1.40
2023-02-15T01:13:15.640Z,1.40
2023-02-15T01:15:44.224Z,1.40
2023-02-15T01:18:12.652Z,1.40
2023-02-15T01:20:40.904Z,1.40
2023-02-15T01:23:11.126Z,1.40
2023-02-15T01:25:38.510Z,1.30
2023-02-15T01:28:06.155Z,1.40
2023-02-15T01:30:33.953Z,1.40
2023-02-15T01:33:01.336Z,1.40
2023-02-15T01:35:31.575Z,1.30
2023-02-15T01:38:01.335Z,1.40
2023-02-15T01:40:28.866Z,1.40
2023-02-15T01:42:58.257Z,1.30
2023-02-15T01:45:33.030Z,1.30
2023-02-15T01:48:00.084Z,1.30
2023-02-15T01:50:36.925Z,1.40
2023-02-15T01:53:23.112Z,1.30
2023-02-15T01:56:10.045Z,1.30
2023-02-15T01:58:38.096Z,1.30
2023-02-15T02:01:08.557Z,1.40
2023-02-15T02:04:18.452Z,1.40
2023-02-15T02:06:48.974Z,1.40
2023-02-15T02:09:16.221Z,1.40
2023-02-15T02:11:47.329Z,1.30
2023-02-15T02:14:14.964Z,1.30
2023-02-15T02:16:53.691Z,1.30
2023-02-15T02:19:35.842Z,1.30
2023-02-15T02:22:09.387Z,1.30
2023-02-15T02:24:39.241Z,1.20
2023-02-15T02:27:42.339Z,1.30
2023-02-15T02:30:34.224Z,1.20
2023-02-15T02:33:38.369Z,1.20
2023-02-15T02:36:28.423Z,1.20
2023-02-15T02:39:12.355Z,1.20
2023-02-15T02:41:45.667Z,1.20
2023-02-15T02:44:23.720Z,1.20
2023-02-15T02:47:00.319Z,1.20
2023-02-15T02:49:37.928Z,1.20
2023-02-15T02:52:41.822Z,1.20
2023-02-15T02:55:24.302Z,1.20
2023-02-15T02:57:57.170Z,1.10
2023-02-15T03:00:28.628Z,1.10
2023-02-15T03:03:03.615Z,1.10
2023-02-15T03:05:34.845Z,1.00
2023-02-15T03:08:04.906Z,1.00
2023-02-15T03:10:35.826Z,1.10
2023-02-15T03:13:03.741Z,1.00
2023-02-15T03:15:40.291Z,1.00
2023-02-15T03:18:12.273Z,1.00
2023-02-15T03:20:39.737Z,1.00
2023-02-15T03:23:17.747Z,1.00
2023-02-15T03:25:52.696Z,1.10
2023-02-15T03:28:27.954Z,1.00
2023-02-15T03:30:59.805Z,1.00
2023-02-15T03:33:29.851Z,1.00
2023-02-15T03:36:12.833Z,1.00
2023-02-15T03:38:55.686Z,1.00
2023-02-15T03:41:29.107Z,1.00
2023-02-15T03:44:01.847Z,1.00
2023-02-15T03:46:47.667Z,1.00
2023-02-15T03:49:53.246Z,1.00
2023-02-15T03:52:22.540Z,1.00
2023-02-15T03:54:50.880Z,1.00
2023-02-15T03:57:37.824Z,1.00
2023-02-15T04:00:13.179Z,1.00
2023-02-15T04:02:52.590Z,1.00
2023-02-15T04:05:19.983Z,1.00
2023-02-15T04:07:47.400Z,1.00
2023-02-15T04:10:17.008Z,1.00
2023-02-15T04:12:46.821Z,1.00
2023-02-15T04:15:16.564Z,1.00
2023-02-15T04:17:46.408Z,0.90
2023-02-15T04:20:16.036Z,0.90
2023-02-15T04:22:43.544Z,0.90
2023-02-15T04:25:10.670Z,0.90
2023-02-15T04:27:39.771Z,0.90
2023-02-15T04:30:07.762Z,1.00
2023-02-15T04:32:36.124Z,1.00
2023-02-15T04:35:06.085Z,1.00
2023-02-15T04:37:34.344Z,1.00
2023-02-15T04:40:01.825Z,1.00
2023-02-15T04:42:29.278Z,1.00
2023-02-15T04:44:56.313Z,0.90
2023-02-15T04:47:23.729Z,0.90
2023-02-15T04:49:52.980Z,0.90
2023-02-15T04:52:22.808Z,0.90
2023-02-15T04:54:49.903Z,0.90
2023-02-15T04:57:17.364Z,0.90
2023-02-15T04:59:46.703Z,0.90
2023-02-15T05:02:14.113Z,0.90
2023-02-15T05:04:41.247Z,0.90
2023-02-15T05:07:10.932Z,0.90
2023-02-15T05:09:40.407Z,0.90
2023-02-15T05:12:07.807Z,0.90
2023-02-15T05:14:37.098Z,0.90
2023-02-15T05:17:04.460Z,0.90
2023-02-15T05:19:31.714Z,0.90
2023-02-15T05:21:59.306Z,0.90
2023-02-15T05:24:26.355Z,0.90
2023-02-15T05:26:53.790Z,0.90
2023-02-15T05:29:23.318Z,0.90
2023-02-15T05:31:50.908Z,0.90
2023-02-15T05:34:18.054Z,0.90
2023-02-15T05:36:45.470Z,0.90
2023-02-15T05:39:12.505Z,0.80
2023-02-15T05:41:39.905Z,0.80
2023-02-15T05:44:09.159Z,0.70
2023-02-15T05:46:36.552Z,0.70
2023-02-15T05:49:06.539Z,0.70
2023-02-15T05:51:33.973Z,0.70
2023-02-15T05:54:03.441Z,0.70
2023-02-15T05:56:30.806Z,0.70
2023-02-15T05:58:57.923Z,0.70
2023-02-15T06:01:25.393Z,0.80
2023-02-15T06:03:53.088Z,0.90
2023-02-15T06:06:20.513Z,0.80
2023-02-15T06:08:49.934Z,0.90
2023-02-15T06:11:17.306Z,0.90
2023-02-15T06:13:44.386Z,0.90
2023-02-15T06:16:14.053Z,1.00
2023-02-15T06:18:41.232Z,0.90
2023-02-15T06:21:10.940Z,1.10
2023-02-15T06:23:40.496Z,1.40
2023-02-15T06:26:07.919Z,1.80
2023-02-15T06:28:35.040Z,2.30
2023-02-15T06:31:02.578Z,3.00
2023-02-15T06:33:29.769Z,3.70
2023-02-15T06:35:57.410Z,4.40
2023-02-15T06:38:24.497Z,5.20
2023-02-15T06:40:54.136Z,6.10
2023-02-15T06:43:21.252Z,7.10
2023-02-15T06:45:48.775Z,8.10
2023-02-15T06:48:15.820Z,9.10
2023-02-15T06:50:43.352Z,10.10
2023-02-15T06:53:10.418Z,11.00
2023-02-15T06:55:37.824Z,12.00
2023-02-15T06:58:04.976Z,13.10
2023-02-15T07:00:32.502Z,13.90
2023-02-15T07:03:02.500Z,14.80
2023-02-15T07:05:29.899Z,15.00
2023-02-15T07:07:57.119Z,13.80
2023-02-15T07:10:24.649Z,12.90
2023-02-15T07:12:54.298Z,13.60
2023-02-15T07:15:22.698Z,14.80
2023-02-15T07:17:50.313Z,16.50
2023-02-15T07:20:22.920Z,18.20
2023-02-15T07:22:52.799Z,19.50
2023-02-15T07:25:20.388Z,20.50
2023-02-15T07:27:49.879Z,21.40
2023-02-15T07:30:20.534Z,22.50
2023-02-15T07:32:50.252Z,23.30
2023-02-15T07:35:19.861Z,24.10
2023-02-15T07:37:46.874Z,24.50
2023-02-15T07:40:14.312Z,25.10
2023-02-15T07:42:41.340Z,25.80
2023-02-15T07:45:11.556Z,25.60
2023-02-15T07:47:41.130Z,25.40
2023-02-15T07:50:08.723Z,25.50
2023-02-15T07:52:35.752Z,26.00
2023-02-15T07:55:03.129Z,26.30
2023-02-15T07:57:30.148Z,26.80
2023-02-15T07:59:57.664Z,27.70
2023-02-15T08:02:24.753Z,28.50
2023-02-15T08:04:52.139Z,29.50
2023-02-15T08:07:19.257Z,29.40
2023-02-15T08:09:46.631Z,29.70
2023-02-15T08:12:16.126Z,29.70
2023-02-15T08:14:45.962Z,30.20
2023-02-15T08:17:15.344Z,30.80
2023-02-15T08:19:45.273Z,31.00
2023-02-15T08:22:17.745Z,30.50
2023-02-15T08:24:46.950Z,30.50
2023-02-15T08:27:14.032Z,30.80
2023-02-15T08:29:41.461Z,30.80
2023-02-15T08:32:13.161Z,31.30
2023-02-15T08:34:42.531Z,31.40
2023-02-15T08:37:12.610Z,31.90
2023-02-15T08:39:40.087Z,31.60
2023-02-15T08:42:07.239Z,31.60
2023-02-15T08:44:34.629Z,31.40
2023-02-15T08:47:01.874Z,31.40
2023-02-15T08:49:29.239Z,31.50
2023-02-15T08:51:58.869Z,31.10
2023-02-15T08:54:26.311Z,31.40
2023-02-15T08:56:53.474Z,31.80
2023-02-15T08:59:24.287Z,31.80
2023-02-15T09:01:53.086Z,31.80
2023-02-15T09:04:23.921Z,32.30
2023-02-15T09:06:53.507Z,32.50
2023-02-15T09:09:25.367Z,33.10
2023-02-15T09:11:57.672Z,33.70
2023-02-15T09:14:26.488Z,34.00
2023-02-15T09:16:54.106Z,34.20
2023-02-15T09:19:23.110Z,34.50
2023-02-15T09:21:50.338Z,34.90
2023-02-15T09:24:22.401Z,35.00
2023-02-15T09:26:49.613Z,35.20
2023-02-15T09:29:21.358Z,34.80
2023-02-15T09:31:50.461Z,34.70
2023-02-15T09:34:23.396Z,35.10
2023-02-15T09:36:51.386Z,35.70
2023-02-15T09:39:18.661Z,36.20
2023-02-15T09:42:04.197Z,36.70
2023-02-15T09:44:40.467Z,36.80
2023-02-15T09:47:22.421Z,36.70
2023-02-15T09:50:14.065Z,36.90
2023-02-15T09:53:08.811Z,36.90
2023-02-15T09:55:58.979Z,37.00
2023-02-15T09:58:41.046Z,37.10
2023-02-15T10:01:25.111Z,37.20
2023-02-15T10:04:12.521Z,37.00
2023-02-15T10:07:09.829Z,37.20
2023-02-15T10:09:55.747Z,37.30
2023-02-15T10:12:58.977Z,36.30
2023-02-15T10:15:53.744Z,36.40
2023-02-15T10:18:38.627Z,36.00
2023-02-15T10:21:49.865Z,36.30
2023-02-15T10:24:47.233Z,36.30
2023-02-15T10:27:24.794Z,36.70
2023-02-15T10:30:12.259Z,36.90
2023-02-15T10:33:07.293Z,36.40
2023-02-15T10:35:34.671Z,36.00
2023-02-15T10:38:30.601Z,35.90
2023-02-15T10:41:16.698Z,35.70
2023-02-15T10:43:55.645Z,35.30
2023-02-15T10:46:41.041Z,34.80
2023-02-15T10:49:47.568Z,34.50
2023-02-15T10:52:14.960Z,34.70
2023-02-15T10:55:00.767Z,34.10
2023-02-15T10:57:40.097Z,34.40
2023-02-15T11:00:14.720Z,34.40
2023-02-15T11:02:57.340Z,34.50
2023-02-15T11:05:58.441Z,34.40
2023-02-15T11:08:27.478Z,34.30
2023-02-15T11:11:03.679Z,34.20
2023-02-15T11:13:37.726Z,33.90
2023-02-15T11:16:12.747Z,33.90
2023-02-15T11:18:49.515Z,33.80
2023-02-15T11:21:24.789Z,33.40
2023-02-15T11:23:53.362Z,33.50
2023-02-15T11:26:42.256Z,33.40
2023-02-15T11:29:29.007Z,33.00
2023-02-15T11:32:03.507Z,32.90
2023-02-15T11:34:45.959Z,32.60
2023-02-15T11:37:21.778Z,32.60
2023-02-15T11:39:49.341Z,32.20
2023-02-15T11:42:21.857Z,31.80
2023-02-15T11:45:23.430Z,30.20
2023-02-15T11:47:50.765Z,27.80
2023-02-15T11:50:23.678Z,25.20
2023-02-15T11:53:01.828Z,22.80
2023-02-15T11:55:30.080Z,20.80
2023-02-15T11:58:15.294Z,19.20
2023-02-15T12:00:48.825Z,17.80
2023-02-15T12:03:28.817Z,16.70
2023-02-15T12:06:03.260Z,15.90
2023-02-15T12:08:45.567Z,15.10
2023-02-15T12:11:31.281Z,14.30
2023-02-15T12:14:02.839Z,13.60
2023-02-15T12:16:51.875Z,13.20
2023-02-15T12:19:21.693Z,12.80
2023-02-15T12:21:53.138Z,12.50
2023-02-15T12:24:29.710Z,12.20
2023-02-15T12:27:05.047Z,11.90
2023-02-15T12:29:40.808Z,11.80
2023-02-15T12:32:17.812Z,11.60
2023-02-15T12:34:46.167Z,11.40
2023-02-15T12:37:20.489Z,11.30
2023-02-15T12:40:02.139Z,11.10
2023-02-15T12:42:43.206Z,10.90
2023-02-15T12:45:30.717Z,10.80
2023-02-15T12:48:10.469Z,10.60
2023-02-15T12:50:37.801Z,10.50
2023-02-15T12:53:23.822Z,10.40
2023-02-15T12:55:54.763Z,10.20
2023-02-15T12:58:24.782Z,10.10
2023-02-15T13:01:10.246Z,10.00
2023-02-15T13:03:52.980Z,9.80
2023-02-15T13:06:21.607Z,9.80
2023-02-15T13:08:55.357Z,9.70
2023-02-15T13:11:33.726Z,9.70
2023-02-15T13:14:17.313Z,9.60
2023-02-15T13:16:46.741Z,9.50
2023-02-15T13:19:21.563Z,9.50
2023-02-15T13:21:51.764Z,9.40
2023-02-15T13:24:23.922Z,9.40
2023-02-15T13:26:51.850Z,9.20
2023-02-15T13:29:24.688Z,9.10
2023-02-15T13:31:54.395Z,9.00
2023-02-15T13:34:39.094Z,8.90
2023-02-15T13:37:16.206Z,8.80
2023-02-15T13:40:00.282Z,8.70
2023-02-15T13:42:52.029Z,8.60
2023-02-15T13:45:58.904Z,8.50
2023-02-15T13:48:48.462Z,8.40
2023-02-15T13:51:39.648Z,8.40
2023-02-15T13:54:07.006Z,8.30
2023-02-15T13:56:58.988Z,8.30
2023-02-15T13:59:44.254Z,8.20
2023-02-15T14:02:34.968Z,8.20
2023-02-15T14:05:23.497Z,8.10
2023-02-15T14:08:35.737Z,8.10
2023-02-15T14:11:34.102Z,8.10
2023-02-15T14:14:07.458Z,8.00
2023-02-15T14:17:06.121Z,8.00
2023-02-15T14:20:04.873Z,8.00
2023-02-15T14:22:45.362Z,8.00
2023-02-15T14:25:18.299Z,8.00
2023-02-15T14:28:11.210Z,8.00
2023-02-15T14:30:41.823Z,8.00
2023-02-15T14:33:14.849Z,7.90
2023-02-15T14:35:43.235Z,7.80
2023-02-15T14:38:22.206Z,7.70
2023-02-15T14:40:52.560Z,7.50
2023-02-15T14:43:25.574Z,7.50
2023-02-15T14:46:17.576Z,7.40
2023-02-15T14:48:51.609Z,7.30
2023-02-15T14:51:43.422Z,7.30
2023-02-15T14:54:31.211Z,7.30
2023-02-15T14:57:01.718Z,7.30
2023-02-15T14:59:51.653Z,7.20
2023-02-15T15:02:24.812Z,7.20
2023-02-15T15:05:01.365Z,7.10
2023-02-15T15:07:42.696Z,7.10
2023-02-15T15:10:15.881Z,7.00
2023-02-15T15:12:53.753Z,6.90
2023-02-15T15:15:30.096Z,6.80
2023-02-15T15:18:07.362Z,6.80
2023-02-15T15:20:50.907Z,6.70
2023-02-15T15:23:18.808Z,6.60
2023-02-15T15:26:19.837Z,6.50
2023-02-15T15:28:50.000Z,6.50
2023-02-15T15:31:23.245Z,6.40
2023-02-15T15:34:13.719Z,6.30
2023-02-15T15:37:04.638Z,6.20
2023-02-15T15:39:41.210Z,6.10
2023-02-15T15:42:26.707Z,6.00
2023-02-15T15:45:12.565Z,6.00
2023-02-15T15:47:46.828Z,5.90
2023-02-15T15:50:19.858Z,5.80
2023-02-15T15:52:55.516Z,5.60
2023-02-15T15:55:25.510Z,5.50
2023-02-15T15:58:02.017Z,5.50
2023-02-15T16:00:34.378Z,5.40
2023-02-15T16:03:01.864Z,5.30
2023-02-15T16:05:36.488Z,5.20
2023-02-15T16:08:03.669Z,5.10
2023-02-15T16:10:32.469Z,5.10
2023-02-15T16:12:59.771Z,5.00
2023-02-15T16:15:43.460Z,5.10
2023-02-15T16:18:21.188Z,5.20
2023-02-15T16:20:58.922Z,5.30
2023-02-15T16:23:38.179Z,5.40
2023-02-15T16:26:30.457Z,5.30
2023-02-15T16:28:57.735Z,5.10
2023-02-15T16:31:25.262Z,4.90
2023-02-15T16:34:00.176Z,4.80
2023-02-15T16:36:30.425Z,4.70
2023-02-15T16:38:57.541Z,4.50
2023-02-15T16:41:26.297Z,4.40
2023-02-15T16:43:55.289Z,4.30
2023-02-15T16:46:33.303Z,4.20
2023-02-15T16:49:13.293Z,4.10
2023-02-15T16:51:44.783Z,4.10
2023-02-15T16:54:23.855Z,4.00
2023-02-15T16:56:51.496Z,4.00
2023-02-15T16:59:49.367Z,4.00
2023-02-15T17:02:49.493Z,4.00
2023-02-15T17:05:18.589Z,3.90
2023-02-15T17:08:25.928Z,3.90
2023-02-15T17:11:07.733Z,3.90
2023-02-15T17:13:38.063Z,3.90
2023-02-15T17:16:05.487Z,3.90
2023-02-15T17:18:47.874Z,3.90
2023-02-15T17:21:20.102Z,3.80
2023-02-15T17:23:58.153Z,3.80
2023-02-15T17:26:30.000Z,3.80
2023-02-15T17:29:00.844Z,3.80
2023-02-15T17:31:32.366Z,3.80
2023-02-15T17:34:03.378Z,3.70
2023-02-15T17:36:32.131Z,3.70
2023-02-15T17:38:59.547Z,3.70
2023-02-15T17:41:29.718Z,3.70
2023-02-15T17:43:57.587Z,3.70
2023-02-15T17:46:30.372Z,3.70
2023-02-15T17:48:57.731Z,3.70
2023-02-15T17:51:24.951Z,3.70
2023-02-15T17:53:52.321Z,3.70
2023-02-15T17:56:21.937Z,3.70
2023-02-15T17:58:51.742Z,3.70
2023-02-15T18:01:21.185Z,3.70
2023-02-15T18:03:53.468Z,3.70
2023-02-15T18:06:20.612Z,3.70
2023-02-15T18:08:48.062Z,3.70
2023-02-15T18:11:19.596Z,3.70
2023-02-15T18:13:49.532Z,3.70
2023-02-15T18:16:22.829Z,3.70
2023-02-15T18:18:50.306Z,3.70
2023-02-15T18:21:17.370Z,3.70
2023-02-15T18:23:48.118Z,3.70
2023-02-15T18:26:22.009Z,3.70
2023-02-15T18:28:50.621Z,3.80
2023-02-15T18:31:19.134Z,3.70
2023-02-15T18:33:54.221Z,3.80
2023-02-15T18:36:27.893Z,3.80
2023-02-15T18:38:55.606Z,3.80
2023-02-15T18:41:23.058Z,3.80
2023-02-15T18:43:53.024Z,3.80
2023-02-15T18:46:20.877Z,3.90
2023-02-15T18:48:50.656Z,3.90
2023-02-15T18:51:24.628Z,3.90
2023-02-15T18:53:55.690Z,3.80
2023-02-15T18:56:23.702Z,3.90
2023-02-15T18:58:53.378Z,3.80
2023-02-15T19:01:21.899Z,3.80
2023-02-15T19:03:52.030Z,3.80
2023-02-15T19:06:21.706Z,3.80
2023-02-15T19:08:53.668Z,3.80
2023-02-15T19:11:30.288Z,3.70
2023-02-15T19:13:58.016Z,3.70
2023-02-15T19:16:34.399Z,3.70
2023-02-15T19:19:02.066Z,3.70
2023-02-15T19:21:31.845Z,3.70
2023-02-15T19:24:04.785Z,3.70
2023-02-15T19:26:44.943Z,3.70
2023-02-15T19:29:15.848Z,3.70
2023-02-15T19:31:43.095Z,3.70
2023-02-15T19:34:15.823Z,3.70
2023-02-15T19:36:50.142Z,3.70
2023-02-15T19:39:32.908Z,3.80
2023-02-15T19:42:00.192Z,3.70
2023-02-15T19:44:27.616Z,3.80
2023-02-15T19:46:56.934Z,3.80
2023-02-15T19:49:24.350Z,3.80
2023-02-15T19:51:51.501Z,3.70
2023-02-15T19:54:29.356Z,3.70
2023-02-15T19:56:57.290Z,3.70
2023-02-15T19:59:32.964Z,3.80
2023-02-15T20:02:00.314Z,3.80
2023-02-15T20:04:27.909Z,3.80
2023-02-15T20:07:01.552Z,3.80
2023-02-15T20:09:30.089Z,3.80
2023-02-15T20:11:57.160Z,3.80
2023-02-15T20:14:27.304Z,3.90
2023-02-15T20:16:56.942Z,3.90
2023-02-15T20:19:24.857Z,3.80
2023-02-15T20:21:52.016Z,3.80
2023-02-15T20:24:21.163Z,3.80
2023-02-15T20:26:48.386Z,3.80
2023-02-15T20:29:17.648Z,3.90
2023-02-15T20:31:46.504Z,3.90
2023-02-15T20:34:16.331Z,3.90
2023-02-15T20:36:47.911Z,3.90
2023-02-15T20:39:18.207Z,3.90
2023-02-15T20:41:47.900Z,3.90
2023-02-15T20:44:38.258Z,3.90
2023-02-15T20:47:05.341Z,4.00
2023-02-15T20:49:37.584Z,4.10
2023-02-15T20:52:18.620Z,4.30
2023-02-15T20:54:46.287Z,4.50
2023-02-15T20:57:13.479Z,4.50
2023-02-15T20:59:43.828Z,4.40
2023-02-15T21:02:19.882Z,4.40
2023-02-15T21:04:48.971Z,4.30
2023-02-15T21:07:20.971Z,4.30
2023-02-15T21:09:48.461Z,4.10
2023-02-15T21:12:18.632Z,4.10
2023-02-15T21:14:48.714Z,4.10
2023-02-15T21:17:16.616Z,4.00
2023-02-15T21:19:46.644Z,4.00
2023-02-15T21:22:15.443Z,3.90
2023-02-15T21:24:51.728Z,3.90
2023-02-15T21:27:19.068Z,3.80
2023-02-15T21:29:46.552Z,3.80
2023-02-15T21:32:16.452Z,3.80
2023-02-15T21:34:46.090Z,3.80
2023-02-15T21:37:33.102Z,3.70
2023-02-15T21:40:03.502Z,3.70
2023-02-15T21:42:30.682Z,3.70
2023-02-15T21:45:01.082Z,3.70
2023-02-15T21:47:30.607Z,3.70
2023-02-15T21:49:58.044Z,3.70
2023-02-15T21:52:27.357Z,3.70
2023-02-15T21:54:54.819Z,3.70
2023-02-15T21:57:26.341Z,3.60
2023-02-15T21:59:56.196Z,3.60
2023-02-15T22:02:31.159Z,3.60
2023-02-15T22:05:01.173Z,3.60
2023-02-15T22:07:30.457Z,3.60
2023-02-15T22:09:57.882Z,3.60
2023-02-15T22:12:24.953Z,3.50
2023-02-15T22:14:55.551Z,3.50
2023-02-15T22:17:25.968Z,3.50
2023-02-15T22:19:55.981Z,3.50
2023-02-15T22:22:26.019Z,3.60
2023-02-15T22:24:53.404Z,3.70
2023-02-15T22:27:23.986Z,3.80
2023-02-15T22:29:54.889Z,3.90
2023-02-15T22:32:24.588Z,4.00
2023-02-15T22:34:54.822Z,4.00
2023-02-15T22:37:22.146Z,3.90
2023-02-15T22:39:51.710Z,3.90
2023-02-15T22:42:27.241Z,3.90
2023-02-15T22:44:56.948Z,3.80
2023-02-15T22:47:27.493Z,3.80
2023-02-15T22:49:55.265Z,3.80
2023-02-15T22:52:22.607Z,3.70
2023-02-15T22:54:52.420Z,3.70
2023-02-15T22:57:31.811Z,3.60
2023-02-15T23:00:01.641Z,3.50
2023-02-15T23:02:28.915Z,3.50
2023-02-15T23:04:56.343Z,3.50
2023-02-15T23:07:23.426Z,3.50
2023-02-15T23:09:50.920Z,3.50
2023-02-15T23:12:30.496Z,3.40
2023-02-15T23:14:58.092Z,3.40
2023-02-15T23:17:25.189Z,3.30
2023-02-15T23:19:55.024Z,3.30
2023-02-15T23:22:22.112Z,3.30
2023-02-15T23:24:52.645Z,3.20
2023-02-15T23:27:19.897Z,3.20
2023-02-15T23:29:49.781Z,3.20
2023-02-15T23:32:17.004Z,3.20
2023-02-15T23:34:44.628Z,3.20
2023-02-15T23:37:15.561Z,3.20
2023-02-15T23:39:45.218Z,3.20
2023-02-15T23:42:21.225Z,3.20
2023-02-15T23:44:51.761Z,3.20
2023-02-15T23:47:20.267Z,3.20
2023-02-15T23:49:47.953Z,3.20
2023-02-15T23:52:15.007Z,3.20
2023-02-15T23:54:42.405Z,3.20
2023-02-15T23:57:11.380Z,3.20
2023-02-15T23:59:43.172Z,3.20
